Sign in

Links

Info

Aviation weather

METAR KDAB 181225Z 20004KT 2SM BR FEW007 SCT250 17/17 A3022 RMK AO2 T01670167

TAF KDAB 181141Z 1812/1912 00000KT 3SM BR SCT006 TEMPO 1812/1814 1/2SM FG BKN005 FM181500 21005KT P6SM SCT010 SCT025 SCT250 TEMPO 1815/1816 BKN015 FM181900 07007KT P6SM SCT030 SCT050 SCT250 FM190000 VRB02KT P6SM FEW045 SCT250 FM190600 VRB02KT 3SM BR SCT004

Aviation weather from ADDS. Re-check weather before flight.

-